Time;durP1;ratioP1;P1;durP2;ratioP2;P2;SDS_P1;SDS_P2;PMS_P1;PMS_P2;Temp;Humidity;BMP_temperature;BMP_pressure;BME280_temperature;BME280_humidity;BME280_pressure;Samples;Min_cycle;Max_cycle;Signal;HPM_P1;HPM_P2
2021/10/28 00:14:11;;;;;;;32.38;23.27;;;;;;;5.12;77.91;100355.66;1774951;79;21064;-65
2021/10/28 00:16:38;;;;;;;28.15;19.92;;;;;;;5.10;77.93;100344.24;1803665;79;21077;-65
2021/10/28 00:19:05;;;;;;;;;;;;;;;5.06;77.98;100348.98;1820918;78;21057;-65
2021/10/28 00:21:35;;;;;;;34.35;23.70;;;;;;;4.98;78.03;100344.68;1765732;81;20108;-66
2021/10/28 00:24:05;;;;;;;33.15;23.87;;;;;;;4.90;78.14;100348.99;1794313;79;21093;-64
2021/10/28 00:26:34;;;;;;;36.03;23.90;;;;;;;4.91;78.12;100346.61;1807863;78;20999;-65
2021/10/28 00:29:03;;;;;;;33.75;23.35;;;;;;;4.91;78.26;100338.00;1795479;79;21082;-65
2021/10/28 00:31:32;;;;;;;32.23;22.65;;;;;;;4.91;78.32;100342.04;1782434;79;21005;-64
2021/10/28 00:33:59;;;;;;;32.08;24.07;;;;;;;4.88;78.56;100345.70;1792170;78;21078;-64
2021/10/28 00:36:28;;;;;;;35.78;24.70;;;;;;;4.86;78.76;100351.82;1784598;78;21018;-64
2021/10/28 00:38:55;;;;;;;34.43;23.80;;;;;;;4.88;78.83;100335.74;1804551;79;21034;-64
2021/10/28 00:41:22;;;;;;;33.08;23.67;;;;;;;4.92;78.81;100342.88;1805708;78;21524;-63
2021/10/28 00:43:52;;;;;;;31.80;22.87;;;;;;;4.93;78.75;100339.11;1784193;78;21081;-63
2021/10/28 00:46:18;;;;;;;36.25;24.92;;;;;;;4.91;78.82;100334.47;1804877;78;21462;-63
2021/10/28 00:48:46;;;;;;;35.92;25.48;;;;;;;4.87;78.86;100334.08;1825176;78;21022;-62
2021/10/28 00:51:13;;;;;;;33.73;24.92;;;;;;;4.87;78.85;100331.90;1788095;79;21033;-64
2021/10/28 00:53:39;;;;;;;35.83;24.70;;;;;;;4.91;78.69;100330.42;1817285;78;21493;-64
2021/10/28 00:56:06;;;;;;;32.93;24.87;;;;;;;4.93;78.53;100321.56;1800144;79;20959;-64
2021/10/28 00:58:34;;;;;;;32.05;22.77;;;;;;;4.96;78.43;100318.42;1812668;78;21563;-64
2021/10/28 01:01:02;;;;;;;34.20;24.52;;;;;;;4.96;78.41;100315.73;1816407;78;20986;-63
2021/10/28 01:03:28;;;;;;;34.60;24.20;;;;;;;4.94;78.40;100315.13;1798546;78;21006;-64
2021/10/28 01:05:55;;;;;;;33.65;24.15;;;;;;;4.90;78.44;100316.10;1792791;79;21065;-64
2021/10/28 01:08:22;;;;;;;33.58;24.02;;;;;;;4.92;78.33;100313.20;1784799;79;21034;-63
2021/10/28 01:10:50;;;;;;;35.98;22.80;;;;;;;4.95;78.17;100318.98;1804663;79;21080;-64
2021/10/28 01:13:20;;;;;;;35.83;24.32;;;;;;;4.97;77.92;100320.08;1781941;78;21117;-64
2021/10/28 01:15:50;;;;;;;32.90;23.85;;;;;;;4.92;77.74;100325.34;1812082;78;21045;-64
2021/10/28 01:18:17;;;;;;;38.88;24.67;;;;;;;4.84;77.81;100316.16;1795219;78;20990;-64
2021/10/28 01:20:46;;;;;;;34.63;25.55;;;;;;;4.79;77.83;100313.28;1809047;79;21047;-64
2021/10/28 01:23:12;;;;;;;33.10;24.90;;;;;;;4.76;77.72;100311.03;1796703;79;21043;-64
2021/10/28 01:25:40;;;;;;;33.20;23.83;;;;;;;4.78;77.52;100303.56;1784900;78;21572;-64
2021/10/28 01:28:15;;;;;;;41.08;25.90;;;;;;;4.78;77.30;100313.00;1802831;79;21028;-64
2021/10/28 01:30:53;;;;;;;37.38;25.17;;;;;;;4.71;77.28;100304.14;1790669;78;21053;-64
2021/10/28 01:33:20;;;;;;;35.98;25.57;;;;;;;4.60;77.65;100303.50;1802318;79;21554;-64
2021/10/28 01:35:47;;;;;;;36.83;25.02;;;;;;;4.59;77.80;100293.75;1786791;78;21108;-64
2021/10/28 01:38:14;;;;;;;37.08;25.20;;;;;;;4.61;77.74;100305.95;1790883;77;21515;-64
2021/10/28 01:40:41;;;;;;;33.73;25.43;;;;;;;4.59;77.71;100297.27;1814148;77;20979;-64
2021/10/28 01:43:07;;;;;;;36.03;25.30;;;;;;;4.51;77.98;100289.45;1807838;79;21022;-64
2021/10/28 01:45:33;;;;;;;;;;;;;;;4.47;78.23;100293.63;1809162;78;21329;-64
2021/10/28 01:48:02;;;;;;;35.95;25.82;;;;;;;4.47;78.28;100287.71;1783284;78;20096;-63
2021/10/28 01:50:28;;;;;;;38.60;25.72;;;;;;;4.45;78.23;100293.86;1796242;79;21026;-64
2021/10/28 01:52:55;;;;;;;34.15;25.20;;;;;;;4.43;78.26;100295.92;1820117;78;21038;-64
2021/10/28 01:55:22;;;;;;;35.73;26.48;;;;;;;4.43;78.26;100293.23;1793781;79;20995;-63
2021/10/28 01:57:49;;;;;;;36.13;25.82;;;;;;;4.43;78.32;100289.70;1825094;78;21037;-62
2021/10/28 02:00:18;;;;;;;33.18;24.15;;;;;;;4.39;78.46;100300.65;1834803;78;21033;-63
2021/10/28 02:02:45;;;;;;;39.50;27.35;;;;;;;4.33;78.58;100296.94;1821079;78;21030;-63
2021/10/28 02:05:14;;;;;;;36.65;25.72;;;;;;;4.34;78.62;100285.63;1804167;79;21573;-64
2021/10/28 02:07:40;;;;;;;39.20;26.48;;;;;;;4.38;78.57;100289.03;1803480;78;21070;-63
2021/10/28 02:10:08;;;;;;;38.50;27.15;;;;;;;4.43;78.48;100292.40;1801660;78;21508;-64
2021/10/28 02:12:36;;;;;;;33.45;23.25;;;;;;;4.43;78.46;100281.09;1780680;79;21080;-64
2021/10/28 02:15:07;;;;;;;34.38;23.60;;;;;;;4.39;78.54;100283.92;1790530;79;21045;-63
2021/10/28 02:17:34;;;;;;;37.95;27.87;;;;;;;4.34;78.58;100295.06;1758125;79;21038;-63
2021/10/28 02:20:02;;;;;;;36.03;27.25;;;;;;;4.29;78.71;100294.88;1834947;78;21046;-63
2021/10/28 02:22:29;;;;;;;35.65;27.02;;;;;;;4.28;78.73;100306.21;1789554;79;21031;-63
2021/10/28 02:24:55;;;;;;;;;;;;;;;4.27;78.74;100309.94;1798349;78;21402;-63
2021/10/28 02:27:22;;;;;;;37.35;26.40;;;;;;;4.23;78.87;100306.02;1806496;78;20108;-63
2021/10/28 02:29:48;;;;;;;43.73;28.12;;;;;;;4.13;79.30;100303.49;1784220;79;21018;-63
2021/10/28 02:32:15;;;;;;;40.48;27.27;;;;;;;4.12;79.62;100306.70;1794098;79;21003;-62
2021/10/28 02:34:42;;;;;;;40.88;27.82;;;;;;;4.16;79.73;100298.50;1785930;79;21030;-63
2021/10/28 02:37:09;;;;;;;38.55;27.55;;;;;;;4.21;79.79;100299.20;1771432;79;20990;-63
2021/10/28 02:39:38;;;;;;;37.88;26.33;;;;;;;4.26;79.73;100299.36;1805492;79;21042;-63
2021/10/28 02:42:06;;;;;;;38.88;26.23;;;;;;;4.26;79.73;100298.02;1738733;81;21005;-63
2021/10/28 02:44:32;;;;;;;40.40;28.02;;;;;;;4.19;79.86;100294.53;1752162;81;21042;-63
2021/10/28 02:46:58;;;;;;;38.75;27.90;;;;;;;4.18;79.98;100293.70;1774319;79;20995;-63
2021/10/28 02:49:26;;;;;;;39.92;27.30;;;;;;;4.20;79.96;100288.95;1807659;79;20982;-63
2021/10/28 02:51:53;;;;;;;40.20;27.25;;;;;;;4.23;80.00;100280.94;1740482;81;21552;-64
2021/10/28 02:54:22;;;;;;;38.90;26.85;;;;;;;4.27;79.96;100273.55;1808498;79;20995;-63
2021/10/28 02:56:49;;;;;;;39.58;26.52;;;;;;;4.25;80.04;100270.23;1784127;78;21034;-63
2021/10/28 02:59:16;;;;;;;39.15;27.87;;;;;;;4.24;80.17;100280.73;1772199;79;20977;-64
2021/10/28 03:01:45;;;;;;;38.42;27.05;;;;;;;4.24;80.14;100279.39;1796632;79;21572;-63
2021/10/28 03:04:17;;;;;;;38.75;26.85;;;;;;;4.28;79.99;100290.56;1787729;79;21102;-63
2021/10/28 03:06:43;;;;;;;37.20;26.45;;;;;;;4.29;79.86;100286.28;1778219;79;21532;-63
2021/10/28 03:09:14;;;;;;;37.05;25.65;;;;;;;4.28;79.80;100292.73;1768651;81;21038;-63
2021/10/28 03:11:42;;;;;;;40.67;27.48;;;;;;;4.23;79.93;100283.63;1780581;79;20999;-64
2021/10/28 03:14:14;;;;;;;40.55;26.97;;;;;;;4.20;80.04;100278.16;1776167;78;21058;-63
2021/10/28 03:16:53;;;;;;;35.35;26.30;;;;;;;4.25;79.97;100281.56;1773732;79;21545;-63
2021/10/28 03:27:28;;;;;;;35.78;26.62;;;;;;;4.13;79.96;100269.30;1800996;79;21042;-63
2021/10/28 03:29:57;;;;;;;36.38;25.55;;;;;;;4.14;80.15;100272.30;1797832;79;21475;-63
2021/10/28 03:32:25;;;;;;;37.65;26.62;;;;;;;4.18;80.21;100273.50;1800923;79;21050;-63
2021/10/28 03:34:53;;;;;;;38.23;25.82;;;;;;;4.22;80.23;100274.72;1794307;79;21889;-63
2021/10/28 03:37:29;;;;;;;37.08;27.42;;;;;;;4.25;80.35;100273.48;1795303;79;21070;-63
2021/10/28 03:58:38;;;;;;;36.20;25.23;;;;;;;4.71;81.55;100266.38;1786872;79;21019;-64
2021/10/28 04:30:01;;;;;;;35.52;25.27;;;;;;;5.53;81.02;100261.08;1799310;79;20995;-64
2021/10/28 04:32:28;;;;;;;31.48;22.87;;;;;;;5.56;80.94;100257.91;1796346;79;21136;-64
2021/10/28 04:34:55;;;;;;;36.33;27.58;;;;;;;5.55;80.97;100263.01;1795413;78;21038;-62
2021/10/28 04:37:21;;;;;;;;;;;;;;;5.58;80.88;100267.95;1748257;81;21597;-62
2021/10/28 04:39:48;;;;;;;37.58;24.80;;;;;;;5.66;80.70;100262.25;1771158;80;20131;-64
2021/10/28 04:42:14;;;;;;;35.35;25.50;;;;;;;5.67;80.59;100254.45;1767587;80;21069;-63
2021/10/28 04:44:41;;;;;;;;;;;;;;;5.67;80.49;100257.95;1811839;79;21022;-64
2021/10/28 04:47:10;;;;;;;37.20;26.50;;;;;;;5.67;80.47;100259.86;1814575;79;20420;-63
2021/10/28 04:49:37;;;;;;;37.20;26.40;;;;;;;5.59;80.67;100255.59;1815053;79;20967;-64
2021/10/28 04:52:05;;;;;;;33.53;24.15;;;;;;;5.66;80.63;100261.73;1807276;79;21698;-64
2021/10/28 04:54:32;;;;;;;34.10;24.92;;;;;;;5.74;80.48;100267.35;1780006;80;21473;-64
2021/10/28 04:56:58;;;;;;;38.60;27.95;;;;;;;5.76;80.41;100263.36;1781722;80;21003;-64
2021/10/28 04:59:25;;;;;;;37.63;25.97;;;;;;;5.75;80.52;100265.75;1798302;79;21046;-64
2021/10/28 05:01:51;;;;;;;38.40;26.57;;;;;;;5.78;80.61;100272.57;1813135;79;21051;-64
2021/10/28 05:04:18;;;;;;;33.80;25.45;;;;;;;5.85;80.52;100261.16;1796067;79;21014;-65
2021/10/28 05:06:44;;;;;;;32.93;24.75;;;;;;;5.92;80.44;100263.27;1802165;79;21002;-63
2021/10/28 05:09:13;;;;;;;37.28;26.70;;;;;;;5.98;80.38;100264.56;1759894;81;21039;-64
2021/10/28 05:11:39;;;;;;;37.10;26.60;;;;;;;5.99;80.45;100256.73;1784211;79;21042;-64
2021/10/28 05:14:06;;;;;;;34.23;24.32;;;;;;;6.03;80.47;100266.55;1765076;80;21110;-64
2021/10/28 05:16:33;;;;;;;;;;;;;;;6.10;80.39;100261.88;1803037;79;21060;-64
2021/10/28 05:19:00;;;;;;;33.88;24.80;;;;;;;6.16;80.25;100263.69;1788244;80;20112;-64
2021/10/28 05:21:26;;;;;;;33.08;24.82;;;;;;;6.17;80.30;100267.19;1787541;79;21031;-64
2021/10/28 05:23:52;;;;;;;;;;;;;;;6.19;80.33;100264.57;1764872;81;21055;-64
2021/10/28 05:26:19;;;;;;;34.90;25.48;;;;;;;6.20;80.36;100263.49;1794862;79;20109;-64
2021/10/28 05:28:45;;;;;;;31.93;23.27;;;;;;;6.23;80.42;100264.41;1790138;79;21071;-64
2021/10/28 05:31:11;;;;;;;33.95;24.77;;;;;;;6.33;80.21;100259.78;1774616;80;21097;-64
2021/10/28 05:33:38;;;;;;;;;;;;;;;6.38;80.03;100264.78;1766407;81;21137;-64
2021/10/28 05:36:05;;;;;;;34.70;25.08;;;;;;;6.40;79.93;100274.86;1779551;79;20098;-63
2021/10/28 05:38:31;;;;;;;;;;;;;;;6.34;80.16;100273.05;1767790;80;21572;-64
2021/10/28 05:40:57;;;;;;;34.43;25.02;;;;;;;6.39;80.13;100277.26;1777742;80;20525;-64
2021/10/28 05:43:23;;;;;;;31.95;24.07;;;;;;;6.43;80.08;100276.27;1738529;81;21056;-64
2021/10/28 05:45:52;;;;;;;32.98;25.88;;;;;;;6.50;79.98;100274.28;1769382;80;21562;-64
2021/10/28 05:48:18;;;;;;;33.40;25.25;;;;;;;6.53;79.91;100285.16;1784597;78;21035;-64
2021/10/28 05:50:46;;;;;;;37.23;25.60;;;;;;;6.55;79.89;100283.06;1779728;80;21553;-65
2021/10/28 05:53:13;;;;;;;35.50;25.62;;;;;;;6.62;79.77;100293.25;1786049;79;21031;-67
2021/10/28 05:55:41;;;;;;;37.75;25.32;;;;;;;6.70;79.61;100288.83;1740768;82;21004;-63
2021/10/28 05:58:07;;;;;;;33.70;26.02;;;;;;;6.74;79.51;100285.95;1757642;81;21042;-64
2021/10/28 06:00:34;;;;;;;34.78;25.80;;;;;;;6.76;79.50;100287.39;1787143;79;21016;-65
2021/10/28 06:03:00;;;;;;;34.23;25.30;;;;;;;6.81;79.53;100293.44;1795878;78;21125;-65
2021/10/28 06:05:27;;;;;;;33.67;25.15;;;;;;;6.92;79.42;100292.62;1797788;79;21012;-66
2021/10/28 06:07:53;;;;;;;35.13;26.73;;;;;;;7.01;79.18;100292.59;1801441;79;21022;-65
2021/10/28 06:10:19;;;;;;;;;;;;;;;7.01;79.05;100288.53;1786468;79;21007;-65
2021/10/28 06:12:53;;;;;;;32.13;23.45;;;;;;;7.03;79.10;100289.62;1794451;78;20117;-64
2021/10/28 06:15:15;;;;;;;30.60;23.32;;;;;;;7.06;79.08;100294.05;1770580;78;21608;-65
2021/10/28 06:17:50;;;;;;;31.85;24.25;;;;;;;7.16;78.90;100290.73;1791461;79;21075;-65
2021/10/28 06:20:13;;;;;;;36.15;24.55;;;;;;;7.23;78.77;100300.39;1783295;80;20994;-66
2021/10/28 06:22:40;;;;;;;36.08;26.45;;;;;;;7.27;78.71;100290.74;1782207;79;21564;-65
2021/10/28 06:25:07;;;;;;;33.23;23.75;;;;;;;7.30;78.72;100298.39;1756876;81;21521;-65
2021/10/28 06:27:34;;;;;;;35.05;24.90;;;;;;;7.36;78.50;100303.41;1772605;79;21043;-64
2021/10/28 06:30:00;;;;;;;34.88;25.40;;;;;;;7.39;78.30;100301.05;1783553;79;21497;-64
2021/10/28 06:32:26;;;;;;;33.13;24.40;;;;;;;7.46;78.21;100302.27;1793665;79;21082;-64
2021/10/28 06:34:52;;;;;;;36.90;25.08;;;;;;;7.49;78.21;100309.39;1774722;79;21501;-64
2021/10/28 06:37:19;;;;;;;33.73;24.25;;;;;;;7.52;78.08;100306.73;1790827;80;21007;-64
2021/10/28 06:39:45;;;;;;;31.50;24.32;;;;;;;7.59;77.91;100312.84;1790309;78;21447;-65
2021/10/28 06:42:13;;;;;;;31.33;22.95;;;;;;;7.64;77.77;100317.55;1802829;79;21051;-65
2021/10/28 06:44:43;;;;;;;35.20;25.17;;;;;;;7.66;77.72;100315.42;1787148;79;21099;-64
2021/10/28 06:47:10;;;;;;;35.58;25.72;;;;;;;7.69;77.76;100328.48;1787571;79;21615;-66
2021/10/28 06:49:40;;;;;;;32.13;24.65;;;;;;;7.74;77.72;100326.73;1771767;80;21048;-66
2021/10/28 06:52:07;;;;;;;33.85;24.25;;;;;;;7.82;77.44;100325.53;1791684;80;21636;-66
2021/10/28 06:54:36;;;;;;;27.82;22.07;;;;;;;7.86;77.19;100320.77;1788880;79;21530;-64
2021/10/28 06:57:31;;;;;;;33.00;24.12;;;;;;;7.87;77.17;100319.67;1790333;79;21078;-64
2021/10/28 07:02:46;;;;;;;34.15;24.25;;;;;;;7.91;76.92;100320.84;1811966;78;21042;-64
2021/10/28 07:05:12;;;;;;;37.55;25.72;;;;;;;7.96;76.81;100316.07;1787284;79;21087;-65
2021/10/28 07:07:39;;;;;;;;;;;;;;;7.94;76.83;100331.73;1802495;78;21054;-65
2021/10/28 07:10:11;;;;;;;32.00;23.30;;;;;;;7.95;76.87;100318.48;1810184;79;20125;-65
2021/10/28 07:15:40;;;;;;;32.60;23.45;;;;;;;8.04;76.69;100321.65;1804553;79;21034;-65
2021/10/28 07:23:02;;;;;;;31.23;23.52;;;;;;;8.18;76.53;100310.28;1817668;78;21087;-66
2021/10/28 07:25:31;;;;;;;32.88;22.80;;;;;;;8.25;76.38;100308.24;1784729;78;21062;-67
2021/10/28 07:28:04;;;;;;;34.90;24.27;;;;;;;8.30;76.34;100313.78;1779026;78;21075;-66
2021/10/28 08:04:59;;;;;;;32.55;23.47;;;;;;;9.18;74.71;100287.83;1799235;79;21034;-66
2021/10/28 08:23:16;;;;;;;31.20;22.77;;;;;;;9.64;73.72;100261.56;1793943;78;21034;-66
2021/10/28 08:31:06;;;;;;;26.52;20.97;;;;;;;9.97;73.06;100255.99;1804885;78;21030;-66
2021/10/28 08:33:33;;;;;;;27.00;20.12;;;;;;;10.03;72.80;100258.75;1793793;78;21078;-67
2021/10/28 08:36:08;;;;;;;25.30;19.55;;;;;;;10.11;72.68;100255.58;1785981;80;21497;-67
2021/10/28 08:38:36;;;;;;;28.75;20.92;;;;;;;10.24;72.34;100263.36;1803699;78;21078;-66
2021/10/28 08:41:07;;;;;;;28.05;19.98;;;;;;;10.32;72.07;100265.62;1787536;79;20999;-66
2021/10/28 08:43:35;;;;;;;26.60;20.70;;;;;;;10.38;71.98;100268.13;1800613;78;21035;-64
2021/10/28 08:46:05;;;;;;;27.77;20.65;;;;;;;10.45;71.64;100265.23;1781394;78;20974;-64
2021/10/28 08:48:33;;;;;;;26.05;18.92;;;;;;;10.58;71.37;100274.86;1775511;79;21385;-63
2021/10/28 08:56:36;;;;;;;26.70;19.82;;;;;;;10.75;70.64;100273.66;1809673;78;20987;-64
2021/10/28 09:24:12;;;;;;;25.20;18.40;;;;;;;11.33;68.80;100284.98;1801416;78;21071;-64
2021/10/28 09:29:16;;;;;;;24.75;18.73;;;;;;;11.36;68.56;100293.16;1785237;78;21080;-62
2021/10/28 09:31:40;;;;;;;26.68;18.80;;;;;;;11.44;68.22;100285.86;1806809;79;21034;-64
2021/10/28 09:43:51;;;;;;;23.47;17.52;;;;;;;11.59;67.87;100266.83;1786706;80;21576;-64
2021/10/28 09:51:47;;;;;;;24.43;17.50;;;;;;;11.73;67.23;100263.10;1780480;80;21030;-64
2021/10/28 09:54:19;;;;;;;24.37;16.97;;;;;;;11.80;67.07;100263.14;1796598;79;21043;-64
2021/10/28 09:59:54;;;;;;;23.27;17.15;;;;;;;12.05;66.67;100264.31;1790101;79;21553;-64
2021/10/28 10:05:00;;;;;;;25.00;17.55;;;;;;;12.28;66.28;100272.03;1782012;79;21581;-67
2021/10/28 10:07:26;;;;;;;26.52;17.92;;;;;;;12.39;65.74;100271.78;1776105;79;21420;-65
2021/10/28 10:09:52;;;;;;;22.40;16.37;;;;;;;12.50;65.26;100276.71;1773317;81;20990;-65
2021/10/28 10:12:19;;;;;;;23.90;18.15;;;;;;;12.59;65.45;100275.61;1795910;79;21030;-66
2021/10/28 10:14:46;;;;;;;22.10;16.15;;;;;;;12.69;65.12;100271.52;1804625;79;21030;-65
2021/10/28 10:17:13;;;;;;;20.90;15.05;;;;;;;12.75;64.73;100267.72;1803820;79;20987;-65
2021/10/28 10:19:45;;;;;;;22.15;16.73;;;;;;;12.79;64.57;100270.97;1794022;79;21053;-66
2021/10/28 10:26:36;;;;;;;22.07;17.20;;;;;;;12.87;63.49;100284.64;1773056;81;21116;-65
2021/10/28 12:19:50;;;;;;;16.50;11.48;;;;;;;13.96;60.27;100261.42;1783366;80;21067;-65
2021/10/28 13:02:37;;;;;;;12.33;8.35;;;;;;;14.07;60.36;100265.47;1794344;79;20963;-66
2021/10/28 13:51:40;;;;;;;18.12;8.85;;;;;;;14.31;60.15;100293.27;1763071;81;20975;-67
2021/10/28 14:19:02;;;;;;;15.95;10.78;;;;;;;14.14;60.85;100303.77;1788991;78;21048;-69
2021/10/28 14:21:19;;;;;;;14.63;10.13;;;;;;;14.10;60.95;100298.58;1772861;80;21035;-68
2021/10/28 14:37:08;;;;;;;13.55;8.13;;;;;;;14.03;61.17;100303.55;1782684;79;21512;-67
2021/10/28 14:39:31;;;;;;;32.35;10.23;;;;;;;14.06;61.31;100311.77;1787228;79;21488;-67
2021/10/28 15:28:32;;;;;;;27.85;19.02;;;;;;;13.83;62.18;100356.45;1819886;79;21011;-67
2021/10/28 15:31:14;;;;;;;16.60;10.63;;;;;;;13.80;62.30;100355.64;1771431;80;21555;-67
2021/10/28 15:36:07;;;;;;;19.62;14.28;;;;;;;13.73;62.59;100356.48;1752210;80;21030;-68
2021/10/28 15:59:00;;;;;;;20.52;12.13;;;;;;;13.68;63.72;100388.48;1804058;79;21023;-67
2021/10/28 16:22:00;;;;;;;52.25;31.90;;;;;;;13.76;63.95;100403.81;1806975;79;21464;-68
2021/10/28 16:24:26;;;;;;;53.17;32.78;;;;;;;13.71;64.04;100407.12;1816052;79;21033;-67
2021/10/28 16:26:53;;;;;;;52.70;33.63;;;;;;;13.69;64.05;100406.01;1800966;79;21547;-68
2021/10/28 16:29:20;;;;;;;56.33;33.38;;;;;;;13.71;64.08;100413.95;1795414;79;21452;-68
2021/10/28 16:31:46;;;;;;;60.83;37.85;;;;;;;13.75;64.05;100415.02;1797850;79;21056;-68
2021/10/28 16:34:14;;;;;;;48.05;31.05;;;;;;;13.78;63.95;100413.91;1804691;77;21105;-68
2021/10/28 16:36:40;;;;;;;53.10;29.80;;;;;;;13.83;63.77;100421.30;1805999;79;20977;-68
2021/10/28 16:39:14;;;;;;;;;;;;;;;13.90;63.61;100417.73;1791290;79;21009;-67
2021/10/28 16:41:45;;;;;;;52.50;30.20;;;;;;;13.96;63.47;100417.98;1798092;79;20112;-68
2021/10/28 16:44:12;;;;;;;51.10;30.95;;;;;;;13.89;63.54;100427.86;1803003;79;21034;-68
2021/10/28 16:46:40;;;;;;;49.05;30.45;;;;;;;13.85;63.57;100428.71;1802560;79;21016;-68
2021/10/28 16:49:06;;;;;;;;;;;;;;;13.79;63.63;100425.14;1796127;79;21535;-67
2021/10/28 16:51:34;;;;;;;;;;;;;;;13.75;63.78;100425.96;1796296;79;20141;-67
2021/10/28 16:54:00;;;;;;;46.60;27.65;;;;;;;13.62;64.05;100423.80;1806168;79;20566;-68
2021/10/28 16:56:26;;;;;;;52.15;29.25;;;;;;;13.53;64.25;100431.75;1810039;79;20986;-67
2021/10/28 16:58:53;;;;;;;;;;;;;;;13.54;64.24;100429.81;1815739;79;21480;-67
2021/10/28 17:01:19;;;;;;;51.70;28.12;;;;;;;13.58;64.10;100435.02;1806655;79;20157;-67
2021/10/28 17:03:45;;;;;;;46.20;28.60;;;;;;;13.55;64.16;100437.76;1812600;79;21520;-67
2021/10/28 17:06:15;;;;;;;51.45;30.68;;;;;;;13.54;64.18;100442.12;1805019;79;20978;-67
2021/10/28 17:08:40;;;;;;;54.05;33.25;;;;;;;13.51;64.30;100442.12;1815336;79;21018;-66
2021/10/28 17:11:07;;;;;;;56.25;35.68;;;;;;;13.45;64.35;100439.95;1804319;79;21594;-67
2021/10/28 17:13:34;;;;;;;54.75;33.38;;;;;;;13.43;64.46;100443.49;1802645;79;21065;-67
2021/10/28 17:16:01;;;;;;;59.05;36.50;;;;;;;13.40;64.65;100444.05;1800287;79;21060;-67
2021/10/28 17:18:28;;;;;;;65.03;38.65;;;;;;;13.42;64.66;100451.99;1806958;79;21520;-65
2021/10/28 17:21:00;;;;;;;;;;;;;;;13.46;64.52;100448.98;1819987;79;21080;-66
2021/10/28 17:23:32;;;;;;;58.78;34.70;;;;;;;13.49;64.46;100454.45;1798048;79;20098;-66
2021/10/28 17:25:59;;;;;;;57.88;36.03;;;;;;;13.37;64.67;100447.33;1791635;79;21091;-66
2021/10/28 17:28:25;;;;;;;56.02;34.30;;;;;;;13.33;64.88;100451.70;1811822;79;21564;-66
2021/10/28 17:30:51;;;;;;;;;;;;;;;13.31;65.00;100446.23;1817545;79;21374;-66
2021/10/28 17:33:18;;;;;;;51.83;30.65;;;;;;;13.29;65.13;100452.51;1804519;79;20413;-66
2021/10/28 17:35:44;;;;;;;50.45;29.27;;;;;;;13.18;65.44;100459.88;1799453;79;21508;-66
2021/10/28 17:38:10;;;;;;;51.85;29.72;;;;;;;13.19;65.45;100454.69;1798780;79;21068;-66
2021/10/28 17:40:37;;;;;;;;;;;;;;;13.22;65.41;100462.34;1804332;79;21005;-65
2021/10/28 17:43:10;;;;;;;44.15;28.80;;;;;;;13.23;65.60;100457.16;1793551;79;20140;-66
2021/10/28 17:45:36;;;;;;;38.75;23.90;;;;;;;13.14;65.91;100460.71;1786768;80;21002;-66
2021/10/28 17:48:02;;;;;;;34.85;22.87;;;;;;;13.12;66.01;100461.52;1789114;79;21010;-67
2021/10/28 17:50:28;;;;;;;;;;;;;;;13.12;66.09;100463.70;1795505;79;20989;-66
2021/10/28 17:52:55;;;;;;;32.70;20.27;;;;;;;13.15;66.15;100465.89;1789525;79;20133;-66
2021/10/28 17:55:22;;;;;;;28.60;18.67;;;;;;;13.14;66.15;100460.17;1819359;79;21017;-67
2021/10/28 17:57:50;;;;;;;23.87;16.37;;;;;;;13.19;66.15;100464.27;1806690;78;21005;-66
2021/10/28 18:00:18;;;;;;;25.77;17.27;;;;;;;13.18;66.21;100457.14;1796261;79;20953;-66
2021/10/28 18:02:46;;;;;;;28.92;19.95;;;;;;;13.17;66.27;100463.73;1786783;79;21463;-66
2021/10/28 18:05:13;;;;;;;31.10;20.75;;;;;;;13.16;66.33;100463.98;1803956;79;21528;-67
2021/10/28 18:07:40;;;;;;;34.33;21.48;;;;;;;13.17;66.33;100467.00;1816361;79;21043;-67
2021/10/28 18:10:07;;;;;;;33.02;22.32;;;;;;;13.22;66.25;100471.09;1804029;79;21524;-66
2021/10/28 18:12:38;;;;;;;26.77;18.85;;;;;;;13.24;66.18;100466.19;1789278;79;21080;-66
2021/10/28 18:15:05;;;;;;;25.68;17.80;;;;;;;13.23;66.20;100464.54;1799009;79;20985;-65
2021/10/28 18:17:32;;;;;;;25.48;17.37;;;;;;;13.22;66.27;100471.09;1809784;79;21037;-66
2021/10/28 18:20:00;;;;;;;30.15;18.65;;;;;;;13.20;66.29;100471.37;1815899;79;20946;-66
2021/10/28 18:22:27;;;;;;;24.70;16.80;;;;;;;13.22;66.29;100468.36;1819243;78;21564;-66
2021/10/28 18:24:55;;;;;;;26.52;17.52;;;;;;;13.23;66.22;100470.83;1809272;78;20963;-66
2021/10/28 18:27:21;;;;;;;26.68;17.40;;;;;;;13.25;66.22;100474.67;1793476;79;21097;-66
2021/10/28 18:29:48;;;;;;;26.20;17.90;;;;;;;13.21;66.36;100477.13;1798670;79;21040;-66
2021/10/28 18:32:15;;;;;;;;;;;;;;;13.17;66.46;100485.59;1806243;78;21061;-66
2021/10/28 18:34:43;;;;;;;28.20;17.98;;;;;;;13.14;66.52;100479.30;1808860;79;20116;-66
2021/10/28 18:37:10;;;;;;;26.10;17.05;;;;;;;13.05;66.81;100474.59;1819149;79;21026;-66
2021/10/28 18:39:36;;;;;;;28.32;18.87;;;;;;;13.03;66.82;100477.61;1800595;79;21061;-67
2021/10/28 18:42:03;;;;;;;30.05;19.50;;;;;;;13.11;66.70;100481.77;1794163;79;21019;-66
2021/10/28 18:44:30;;;;;;;27.82;19.57;;;;;;;13.12;66.60;100484.75;1789648;79;21549;-66
2021/10/28 18:46:56;;;;;;;;;;;;;;;13.09;66.69;100488.85;1792814;79;21037;-66
2021/10/28 18:49:23;;;;;;;26.00;18.20;;;;;;;13.07;66.79;100486.91;1788604;79;20124;-66
2021/10/28 18:51:49;;;;;;;28.65;18.20;;;;;;;13.01;66.90;100496.71;1819213;79;21073;-66
2021/10/28 18:54:18;;;;;;;27.25;17.48;;;;;;;13.03;66.86;100487.17;1808904;78;21009;-66
2021/10/28 18:56:46;;;;;;;24.60;16.17;;;;;;;13.10;66.65;100486.94;1788916;79;21057;-66
2021/10/28 18:59:14;;;;;;;24.27;16.23;;;;;;;13.11;66.61;100486.66;1803957;79;21500;-66
2021/10/28 19:01:41;;;;;;;22.67;15.43;;;;;;;13.05;66.68;100487.71;1817544;79;21057;-66
2021/10/28 19:04:09;;;;;;;23.30;15.20;;;;;;;13.02;66.81;100495.63;1811929;79;21451;-66
2021/10/28 19:06:35;;;;;;;25.30;15.05;;;;;;;12.96;66.95;100504.38;1803006;79;21076;-66
2021/10/28 19:09:02;;;;;;;22.40;14.90;;;;;;;12.93;67.05;100498.88;1787362;79;21042;-66
2021/10/28 19:11:29;;;;;;;21.90;14.55;;;;;;;12.96;67.08;100507.11;1787749;79;21039;-67
2021/10/28 19:13:56;;;;;;;22.25;15.00;;;;;;;12.90;67.20;100503.52;1787735;79;21029;-66
2021/10/28 19:16:23;;;;;;;25.17;15.25;;;;;;;12.85;67.41;100508.16;1796850;79;20981;-66
2021/10/28 19:18:51;;;;;;;23.02;15.75;;;;;;;12.80;67.59;100514.95;1808192;79;21635;-66
2021/10/28 19:21:18;;;;;;;25.10;17.10;;;;;;;12.77;67.70;100512.22;1812570;79;20946;-66
2021/10/28 19:23:45;;;;;;;31.25;18.50;;;;;;;12.79;67.76;100515.50;1805477;79;21017;-67
2021/10/28 19:26:11;;;;;;;;;;;;;;;12.74;67.92;100515.49;1789669;80;21033;-67
2021/10/28 19:28:40;;;;;;;30.30;19.65;;;;;;;12.68;68.30;100515.17;1789136;79;20402;-67
2021/10/28 19:31:12;;;;;;;35.17;20.15;;;;;;;12.56;68.87;100521.95;1787019;80;21092;-67
2021/10/28 19:33:43;;;;;;;25.15;16.52;;;;;;;12.53;69.22;100517.86;1807603;79;21069;-68
2021/10/28 19:36:11;;;;;;;23.25;15.45;;;;;;;12.57;69.34;100524.98;1815702;78;21069;-67
2021/10/28 19:39:09;;;;;;;25.95;16.07;;;;;;;12.55;69.74;100526.59;1804863;79;21053;-68
2021/10/28 19:46:29;;;;;;;21.52;13.95;;;;;;;12.50;70.30;100527.12;1808322;79;20113;-67
2021/10/28 19:48:55;;;;;;;19.98;13.53;;;;;;;12.45;70.52;100531.47;1808340;79;21618;-67
2021/10/28 19:51:22;;;;;;;;;;;;;;;12.41;70.77;100538.54;1805772;79;21056;-67
2021/10/28 19:53:48;;;;;;;19.82;13.43;;;;;;;12.36;70.98;100528.94;1776450;79;20096;-67
2021/10/28 19:56:18;;;;;;;19.48;13.55;;;;;;;12.28;71.27;100531.36;1776725;80;21058;-67
2021/10/28 19:58:49;;;;;;;21.12;13.20;;;;;;;12.35;71.19;100542.34;1785345;79;21072;-67
2021/10/28 20:06:53;;;;;;;21.73;14.00;;;;;;;12.59;70.67;100542.73;1803695;79;21619;-68
2021/10/28 20:20:13;;;;;;;21.77;14.63;;;;;;;12.46;71.47;100553.59;1788648;79;20982;-67
2021/10/28 20:22:43;;;;;;;21.65;13.65;;;;;;;12.38;71.79;100554.63;1793849;79;21588;-67